createdAt,value
2023-09-18T00:01:31.190Z,77.57
2023-09-18T00:06:34.015Z,77.91
2023-09-18T00:11:36.019Z,78.40
2023-09-18T00:16:51.992Z,77.91
2023-09-18T00:22:02.062Z,77.57
2023-09-18T00:27:04.194Z,77.75
2023-09-18T00:32:06.988Z,77.78
2023-09-18T00:37:08.660Z,78.11
2023-09-18T00:42:14.658Z,78.51
2023-09-18T00:47:16.723Z,79.00
2023-09-18T00:52:18.820Z,78.84
2023-09-18T00:57:21.540Z,79.59
2023-09-18T01:02:23.275Z,79.48
2023-09-18T01:07:24.962Z,78.93
2023-09-18T01:12:32.657Z,79.08
2023-09-18T01:17:39.454Z,79.27
2023-09-18T01:22:41.311Z,78.93
2023-09-18T01:27:43.176Z,79.23
2023-09-18T01:32:45.913Z,79.33
2023-09-18T01:37:47.768Z,80.07
2023-09-18T01:42:49.413Z,80.04
2023-09-18T01:47:51.104Z,80.90
2023-09-18T01:52:53.962Z,81.78
2023-09-18T01:57:56.797Z,81.76
2023-09-18T02:03:09.137Z,81.58
2023-09-18T02:08:20.371Z,80.82
2023-09-18T02:13:22.173Z,80.75
2023-09-18T02:18:23.899Z,81.57
2023-09-18T02:23:25.605Z,81.01
2023-09-18T02:28:27.254Z,80.90
2023-09-18T02:33:29.228Z,80.69
2023-09-18T02:38:33.657Z,80.54
2023-09-18T02:43:35.596Z,80.75
2023-09-18T02:48:37.403Z,80.52
2023-09-18T02:53:39.240Z,80.38
2023-09-18T02:58:40.942Z,80.75
2023-09-18T03:03:43.236Z,81.58
2023-09-18T03:08:45.644Z,81.56
2023-09-18T03:13:48.300Z,81.94
2023-09-18T03:18:52.458Z,82.34
2023-09-18T03:23:54.518Z,81.78
2023-09-18T03:28:56.308Z,81.81
2023-09-18T03:33:58.058Z,81.18
2023-09-18T03:39:00.844Z,81.27
2023-09-18T03:44:03.072Z,80.93
2023-09-18T03:49:04.760Z,81.27
2023-09-18T03:54:09.293Z,82.13
2023-09-18T03:59:10.949Z,82.31
2023-09-18T04:04:12.630Z,81.63
2023-09-18T04:09:16.314Z,81.85
2023-09-18T04:14:18.029Z,81.65
2023-09-18T04:19:19.709Z,81.80
2023-09-18T04:24:21.559Z,81.76
2023-09-18T04:29:23.277Z,82.06
2023-09-18T04:34:25.951Z,82.29
2023-09-18T04:39:27.715Z,82.62
2023-09-18T04:44:29.413Z,82.50
2023-09-18T04:49:31.296Z,82.64
2023-09-18T04:54:33.245Z,83.67
2023-09-18T04:59:35.721Z,83.43
2023-09-18T05:04:37.545Z,83.19
2023-09-18T05:09:41.095Z,83.03
2023-09-18T05:14:44.189Z,82.45
2023-09-18T05:19:45.956Z,82.40
2023-09-18T05:24:47.575Z,82.58
2023-09-18T05:29:49.340Z,82.62
2023-09-18T05:34:50.948Z,81.92
2023-09-18T05:39:52.598Z,81.51
2023-09-18T05:44:54.633Z,81.23
2023-09-18T05:49:56.277Z,80.59
2023-09-18T05:54:57.895Z,80.81
2023-09-18T05:59:59.624Z,80.13
2023-09-18T06:05:02.054Z,80.42
2023-09-18T06:10:04.083Z,79.85
2023-09-18T06:15:10.171Z,79.37
2023-09-18T06:20:17.102Z,79.30
2023-09-18T06:25:19.185Z,79.27
2023-09-18T06:30:20.917Z,79.33
2023-09-18T06:35:22.782Z,79.18
2023-09-18T06:40:24.494Z,78.86
2023-09-18T06:45:26.097Z,79.07
2023-09-18T06:50:27.817Z,78.87
2023-09-18T06:55:29.539Z,78.00
2023-09-18T07:00:31.363Z,77.67
2023-09-18T07:05:33.171Z,77.11
2023-09-18T07:10:36.366Z,76.55
2023-09-18T07:15:38.235Z,76.35
2023-09-18T07:20:40.087Z,76.08
2023-09-18T07:25:44.503Z,75.86
2023-09-18T07:30:46.372Z,75.76
2023-09-18T07:35:49.259Z,75.40
2023-09-18T07:40:51.083Z,75.53
2023-09-18T07:45:54.316Z,75.36
2023-09-18T07:50:56.443Z,74.79
2023-09-18T07:55:59.891Z,74.95
2023-09-18T08:01:04.210Z,74.16
2023-09-18T08:06:06.125Z,73.66
2023-09-18T08:11:12.110Z,73.33
2023-09-18T08:16:15.099Z,73.45
2023-09-18T08:21:18.411Z,72.07
2023-09-18T08:26:20.249Z,71.12
2023-09-18T08:31:21.965Z,70.72
2023-09-18T08:36:23.694Z,70.06
2023-09-18T08:41:28.009Z,69.80
2023-09-18T08:46:31.286Z,68.88
2023-09-18T08:51:35.851Z,68.89
2023-09-18T08:56:37.578Z,68.20
2023-09-18T09:01:39.280Z,67.13
2023-09-18T09:06:40.908Z,66.77
2023-09-18T09:11:50.126Z,66.66
2023-09-18T09:16:52.443Z,64.86
2023-09-18T09:21:54.955Z,64.43
2023-09-18T09:27:00.532Z,64.57
2023-09-18T09:32:22.452Z,64.51
2023-09-18T09:37:32.097Z,62.73
2023-09-18T09:42:40.176Z,62.34
2023-09-18T09:47:41.957Z,62.67
2023-09-18T09:52:54.109Z,62.21
2023-09-18T09:58:01.008Z,62.37
2023-09-18T10:03:05.026Z,61.69
2023-09-18T10:08:09.466Z,61.30
2023-09-18T10:13:14.070Z,60.60
2023-09-18T10:18:27.633Z,59.80
2023-09-18T10:23:48.136Z,59.87
2023-09-18T10:28:54.107Z,59.60
2023-09-18T10:34:00.447Z,59.36
2023-09-18T10:39:02.315Z,58.92
2023-09-18T10:44:05.459Z,58.88
2023-09-18T10:49:07.293Z,59.09
2023-09-18T10:54:11.717Z,58.68
2023-09-18T10:59:17.135Z,58.07
2023-09-18T11:04:20.061Z,58.37
2023-09-18T11:09:29.367Z,59.08
2023-09-18T11:14:55.865Z,59.12
2023-09-18T11:20:05.591Z,60.08
2023-09-18T11:25:52.261Z,59.80
2023-09-18T11:31:02.638Z,59.68
2023-09-18T11:36:08.313Z,59.51
2023-09-18T11:41:29.693Z,59.57
2023-09-18T11:46:31.988Z,59.96
2023-09-18T11:51:33.977Z,61.05
2023-09-18T11:56:36.889Z,62.11
2023-09-18T12:01:40.704Z,61.83
2023-09-18T12:06:43.670Z,61.50
2023-09-18T12:11:46.015Z,61.56
2023-09-18T12:16:51.185Z,60.74
2023-09-18T12:21:52.886Z,60.31
2023-09-18T12:26:55.413Z,60.04
2023-09-18T12:31:57.281Z,59.79
2023-09-18T12:37:00.072Z,60.97
2023-09-18T12:42:01.866Z,60.71
2023-09-18T12:47:04.917Z,60.06
2023-09-18T12:52:09.973Z,60.35
2023-09-18T12:57:11.831Z,60.65
2023-09-18T13:02:18.831Z,60.14
2023-09-18T13:07:20.603Z,60.52
2023-09-18T13:12:22.238Z,60.24
2023-09-18T13:17:25.151Z,60.38
2023-09-18T13:22:27.187Z,60.47
2023-09-18T13:27:28.895Z,59.70
2023-09-18T13:32:30.637Z,59.52
2023-09-18T13:37:34.007Z,59.93
2023-09-18T13:42:38.112Z,59.84
2023-09-18T13:47:40.029Z,59.13
2023-09-18T13:52:41.786Z,59.88
2023-09-18T13:57:43.417Z,58.94
2023-09-18T14:02:45.099Z,58.77
2023-09-18T14:07:47.247Z,59.61
2023-09-18T14:12:48.915Z,60.21
2023-09-18T14:17:50.689Z,60.44
2023-09-18T14:22:52.410Z,59.52
2023-09-18T14:27:54.279Z,57.73
2023-09-18T14:32:56.008Z,57.16
2023-09-18T14:37:57.740Z,57.51
2023-09-18T14:42:59.350Z,58.04
2023-09-18T14:48:01.042Z,57.93
2023-09-18T14:53:04.786Z,57.29
2023-09-18T14:58:07.324Z,57.93
2023-09-18T15:03:09.036Z,58.20
2023-09-18T15:08:11.251Z,58.15
2023-09-18T15:13:14.987Z,58.87
2023-09-18T15:18:16.818Z,59.51
2023-09-18T15:23:18.618Z,58.14
2023-09-18T15:28:21.011Z,57.61
2023-09-18T15:33:23.652Z,57.65
2023-09-18T15:38:25.906Z,56.52
2023-09-18T15:43:28.950Z,56.90
2023-09-18T15:48:30.713Z,56.20
2023-09-18T15:53:32.412Z,63.08
2023-09-18T15:58:35.490Z,58.05
2023-09-18T16:03:37.575Z,58.11
2023-09-18T16:08:39.499Z,59.76
2023-09-18T16:13:41.222Z,58.41
2023-09-18T16:18:43.447Z,61.59
2023-09-18T16:23:45.167Z,61.60
2023-09-18T16:28:48.147Z,67.71
2023-09-18T16:33:49.845Z,66.51
2023-09-18T16:38:51.821Z,69.72
2023-09-18T16:43:53.500Z,69.15
2023-09-18T16:48:56.377Z,73.86
2023-09-18T16:53:59.948Z,75.72
2023-09-18T16:59:02.043Z,76.33
2023-09-18T17:04:04.127Z,78.13
2023-09-18T17:09:08.554Z,80.38
2023-09-18T17:14:10.833Z,79.74
2023-09-18T17:19:14.004Z,81.97
2023-09-18T17:24:15.684Z,83.27
2023-09-18T17:29:18.185Z,88.24
2023-09-18T17:34:19.827Z,89.43
2023-09-18T17:39:23.808Z,89.56
2023-09-18T17:44:25.436Z,90.18
2023-09-18T17:49:27.063Z,91.72
2023-09-18T17:54:28.678Z,93.48
2023-09-18T17:59:30.729Z,93.40
2023-09-18T18:04:32.941Z,92.72
2023-09-18T18:09:34.658Z,95.13
2023-09-18T18:14:36.305Z,95.94
2023-09-18T18:19:38.027Z,96.16
2023-09-18T18:24:39.977Z,98.71
2023-09-18T18:29:41.692Z,99.07
2023-09-18T18:34:45.994Z,98.02
2023-09-18T18:39:47.732Z,99.37
2023-09-18T18:44:49.647Z,99.73
2023-09-18T18:49:51.488Z,95.37
2023-09-18T18:54:53.122Z,98.50
2023-09-18T18:59:54.747Z,99.98
2023-09-18T19:04:56.421Z,97.68
2023-09-18T19:09:59.827Z,99.74
2023-09-18T19:15:02.572Z,100.00
2023-09-18T19:20:05.882Z,99.66
2023-09-18T19:25:07.890Z,96.95
2023-09-18T19:30:09.861Z,95.59
2023-09-18T19:35:11.518Z,98.47
2023-09-18T19:40:14.895Z,97.75
2023-09-18T19:45:16.731Z,100.00
2023-09-18T19:50:18.515Z,99.77
2023-09-18T19:55:28.920Z,99.75
2023-09-18T20:00:31.199Z,100.00
2023-09-18T20:05:33.938Z,100.00
2023-09-18T20:10:35.699Z,100.00
2023-09-18T20:15:37.315Z,100.00
2023-09-18T20:20:39.039Z,100.00
2023-09-18T20:25:40.647Z,100.00
2023-09-18T20:30:42.896Z,100.00
2023-09-18T20:35:44.619Z,100.00
2023-09-18T20:40:46.294Z,100.00
2023-09-18T20:45:47.892Z,100.00
2023-09-18T20:50:49.942Z,100.00
2023-09-18T20:55:51.576Z,100.00
2023-09-18T21:00:53.166Z,100.00
2023-09-18T21:05:55.764Z,100.00
2023-09-18T21:10:59.040Z,100.00
2023-09-18T21:16:04.352Z,100.00
2023-09-18T21:21:16.035Z,100.00
2023-09-18T21:26:18.110Z,100.00
2023-09-18T21:31:22.289Z,100.00
2023-09-18T21:36:27.744Z,100.00
2023-09-18T21:41:29.421Z,100.00
2023-09-18T21:46:33.100Z,99.84
2023-09-18T21:51:37.365Z,99.98
2023-09-18T21:56:39.043Z,100.00
2023-09-18T22:01:40.920Z,99.74
2023-09-18T22:06:42.535Z,100.00
2023-09-18T22:11:44.105Z,99.46
2023-09-18T22:16:45.755Z,99.48
2023-09-18T22:21:48.672Z,100.00
2023-09-18T22:26:50.374Z,100.00
2023-09-18T22:31:54.547Z,98.75
2023-09-18T22:36:56.288Z,100.00
2023-09-18T22:41:59.182Z,99.89
2023-09-18T22:47:38.505Z,100.00
2023-09-18T22:52:46.179Z,100.00
2023-09-18T22:57:56.045Z,100.00
2023-09-18T23:03:00.203Z,99.57
2023-09-18T23:08:08.580Z,100.00
2023-09-18T23:13:12.025Z,100.00
2023-09-18T23:18:17.416Z,100.00
2023-09-18T23:23:19.189Z,100.00
2023-09-18T23:28:21.133Z,100.00
2023-09-18T23:33:23.651Z,100.00
2023-09-18T23:38:29.824Z,100.00
2023-09-18T23:43:34.936Z,100.00
2023-09-18T23:48:36.668Z,99.54
2023-09-18T23:53:38.649Z,98.74
2023-09-18T23:58:41.703Z,99.40
